sensor_id;sensor_type;location;lat;lon;timestamp;pressure;altitude;pressure_sealevel;temperature;humidity
25084;BME280;13075;55.682;37.564;2023-07-13T00:01:53;98562.03;;;21.58;89.42
25084;BME280;13075;55.682;37.564;2023-07-13T00:04:19;98567.63;;;21.67;89.61
25084;BME280;13075;55.682;37.564;2023-07-13T00:09:30;98558.50;;;21.77;88.94
25084;BME280;13075;55.682;37.564;2023-07-13T00:11:56;98562.69;;;21.69;88.13
25084;BME280;13075;55.682;37.564;2023-07-13T00:14:22;98564.47;;;21.60;90.35
25084;BME280;13075;55.682;37.564;2023-07-13T00:16:47;98565.72;;;21.86;89.67
25084;BME280;13075;55.682;37.564;2023-07-13T00:19:13;98569.84;;;21.65;88.52
25084;BME280;13075;55.682;37.564;2023-07-13T00:21:39;98564.16;;;21.24;93.25
25084;BME280;13075;55.682;37.564;2023-07-13T00:24:05;98575.44;;;21.55;93.06
25084;BME280;13075;55.682;37.564;2023-07-13T00:26:31;98569.41;;;21.39;92.11
25084;BME280;13075;55.682;37.564;2023-07-13T00:28:57;98573.91;;;21.67;90.14
25084;BME280;13075;55.682;37.564;2023-07-13T00:31:23;98568.88;;;21.19;92.00
25084;BME280;13075;55.682;37.564;2023-07-13T00:33:48;98571.47;;;21.29;93.08
25084;BME280;13075;55.682;37.564;2023-07-13T00:36:14;98573.22;;;21.38;94.59
25084;BME280;13075;55.682;37.564;2023-07-13T00:38:39;98568.22;;;21.45;92.01
25084;BME280;13075;55.682;37.564;2023-07-13T00:41:06;98563.31;;;21.29;93.29
25084;BME280;13075;55.682;37.564;2023-07-13T00:43:32;98570.44;;;21.43;92.01
25084;BME280;13075;55.682;37.564;2023-07-13T00:48:24;98572.63;;;20.99;96.92
25084;BME280;13075;55.682;37.564;2023-07-13T00:50:52;98571.59;;;21.19;98.01
25084;BME280;13075;55.682;37.564;2023-07-13T00:53:19;98576.88;;;21.10;96.91
25084;BME280;13075;55.682;37.564;2023-07-13T00:55:45;98575.06;;;21.43;94.64
25084;BME280;13075;55.682;37.564;2023-07-13T00:58:11;98580.22;;;21.44;95.55
25084;BME280;13075;55.682;37.564;2023-07-13T01:03:18;98572.56;;;21.46;95.33
25084;BME280;13075;55.682;37.564;2023-07-13T01:05:44;98569.50;;;21.34;96.50
25084;BME280;13075;55.682;37.564;2023-07-13T01:08:12;98569.84;;;21.46;94.34
25084;BME280;13075;55.682;37.564;2023-07-13T01:10:37;98565.13;;;21.33;92.78
25084;BME280;13075;55.682;37.564;2023-07-13T01:13:05;98564.75;;;21.58;94.45
25084;BME280;13075;55.682;37.564;2023-07-13T01:18:09;98564.19;;;21.43;93.52
25084;BME280;13075;55.682;37.564;2023-07-13T01:20:36;98563.88;;;21.26;96.07
25084;BME280;13075;55.682;37.564;2023-07-13T01:23:03;98568.59;;;21.20;98.73
25084;BME280;13075;55.682;37.564;2023-07-13T01:25:29;98561.69;;;21.46;96.58
25084;BME280;13075;55.682;37.564;2023-07-13T01:27:54;98553.50;;;21.28;95.79
25084;BME280;13075;55.682;37.564;2023-07-13T01:30:20;98557.69;;;21.20;97.34
25084;BME280;13075;55.682;37.564;2023-07-13T01:32:45;98556.00;;;21.43;96.25
25084;BME280;13075;55.682;37.564;2023-07-13T01:35:11;98553.25;;;21.05;99.45
25084;BME280;13075;55.682;37.564;2023-07-13T01:37:37;98554.25;;;20.91;100.00
25084;BME280;13075;55.682;37.564;2023-07-13T01:40:03;98550.28;;;21.26;99.84
25084;BME280;13075;55.682;37.564;2023-07-13T01:42:30;98551.22;;;21.53;96.89
25084;BME280;13075;55.682;37.564;2023-07-13T01:44:55;98550.81;;;21.46;95.88
25084;BME280;13075;55.682;37.564;2023-07-13T01:47:22;98551.69;;;20.99;99.39
25084;BME280;13075;55.682;37.564;2023-07-13T01:49:47;98548.44;;;21.40;98.54
25084;BME280;13075;55.682;37.564;2023-07-13T01:52:13;98544.84;;;21.26;98.47
25084;BME280;13075;55.682;37.564;2023-07-13T01:54:38;98544.53;;;21.27;98.32
25084;BME280;13075;55.682;37.564;2023-07-13T01:57:04;98536.84;;;21.34;98.79
25084;BME280;13075;55.682;37.564;2023-07-13T01:59:30;98544.31;;;21.42;98.32
25084;BME280;13075;55.682;37.564;2023-07-13T02:01:55;98543.94;;;21.67;95.18
25084;BME280;13075;55.682;37.564;2023-07-13T02:04:21;98541.13;;;21.91;91.46
25084;BME280;13075;55.682;37.564;2023-07-13T02:06:46;98537.75;;;21.81;93.23
25084;BME280;13075;55.682;37.564;2023-07-13T02:09:14;98537.94;;;21.84;92.53
25084;BME280;13075;55.682;37.564;2023-07-13T02:11:40;98529.81;;;21.65;94.53
25084;BME280;13075;55.682;37.564;2023-07-13T02:14:05;98540.56;;;21.20;97.70
25084;BME280;13075;55.682;37.564;2023-07-13T02:16:31;98534.22;;;21.61;95.81
25084;BME280;13075;55.682;37.564;2023-07-13T02:18:56;98535.38;;;21.74;94.87
25084;BME280;13075;55.682;37.564;2023-07-13T02:21:23;98534.09;;;21.53;95.35
25084;BME280;13075;55.682;37.564;2023-07-13T02:23:50;98532.84;;;21.45;97.27
25084;BME280;13075;55.682;37.564;2023-07-13T02:26:16;98528.25;;;21.78;95.29
25084;BME280;13075;55.682;37.564;2023-07-13T02:28:41;98542.00;;;21.87;94.74
25084;BME280;13075;55.682;37.564;2023-07-13T02:31:07;98539.59;;;21.48;95.54
25084;BME280;13075;55.682;37.564;2023-07-13T02:33:33;98532.53;;;21.65;95.86
25084;BME280;13075;55.682;37.564;2023-07-13T02:35:58;98535.91;;;21.76;95.38
25084;BME280;13075;55.682;37.564;2023-07-13T02:38:24;98532.56;;;21.98;93.80
25084;BME280;13075;55.682;37.564;2023-07-13T02:40:49;98521.56;;;21.89;92.58
25084;BME280;13075;55.682;37.564;2023-07-13T02:43:15;98519.78;;;21.80;93.47
25084;BME280;13075;55.682;37.564;2023-07-13T02:45:43;98514.66;;;21.78;94.09
25084;BME280;13075;55.682;37.564;2023-07-13T02:48:08;98518.06;;;21.84;93.24
25084;BME280;13075;55.682;37.564;2023-07-13T02:50:34;98519.56;;;21.76;94.48
25084;BME280;13075;55.682;37.564;2023-07-13T02:52:59;98513.44;;;21.84;94.00
25084;BME280;13075;55.682;37.564;2023-07-13T02:55:25;98508.56;;;21.67;93.43
25084;BME280;13075;55.682;37.564;2023-07-13T02:57:50;98508.97;;;21.74;93.52
25084;BME280;13075;55.682;37.564;2023-07-13T03:00:17;98518.31;;;21.68;94.95
25084;BME280;13075;55.682;37.564;2023-07-13T03:02:43;98520.69;;;21.56;97.17
25084;BME280;13075;55.682;37.564;2023-07-13T03:05:09;98517.56;;;21.82;95.37
25084;BME280;13075;55.682;37.564;2023-07-13T03:07:38;98513.13;;;21.35;97.11
25084;BME280;13075;55.682;37.564;2023-07-13T03:10:04;98515.53;;;21.73;96.93
25084;BME280;13075;55.682;37.564;2023-07-13T03:12:39;98519.31;;;21.22;100.00
25084;BME280;13075;55.682;37.564;2023-07-13T03:15:10;98509.66;;;21.66;99.02
25084;BME280;13075;55.682;37.564;2023-07-13T03:17:38;98514.84;;;21.82;96.89
25084;BME280;13075;55.682;37.564;2023-07-13T03:20:04;98517.56;;;21.82;95.68
25084;BME280;13075;55.682;37.564;2023-07-13T03:22:30;98508.63;;;21.62;98.53
25084;BME280;13075;55.682;37.564;2023-07-13T03:24:56;98510.91;;;22.06;95.31
25084;BME280;13075;55.682;37.564;2023-07-13T03:27:22;98519.78;;;21.98;94.63
25084;BME280;13075;55.682;37.564;2023-07-13T03:29:48;98517.31;;;21.64;95.02
25084;BME280;13075;55.682;37.564;2023-07-13T03:32:16;98522.41;;;22.03;95.16
25084;BME280;13075;55.682;37.564;2023-07-13T03:34:41;98515.66;;;22.01;96.01
25084;BME280;13075;55.682;37.564;2023-07-13T03:37:08;98515.66;;;22.01;95.57
25084;BME280;13075;55.682;37.564;2023-07-13T03:39:35;98515.84;;;22.04;95.87
25084;BME280;13075;55.682;37.564;2023-07-13T03:42:00;98521.72;;;22.25;94.25
25084;BME280;13075;55.682;37.564;2023-07-13T03:44:27;98518.56;;;21.72;96.28
25084;BME280;13075;55.682;37.564;2023-07-13T03:46:55;98521.34;;;21.67;100.00
25084;BME280;13075;55.682;37.564;2023-07-13T03:49:20;98524.00;;;21.91;95.86
25084;BME280;13075;55.682;37.564;2023-07-13T03:51:46;98528.63;;;21.90;96.67
25084;BME280;13075;55.682;37.564;2023-07-13T03:54:11;98526.50;;;22.19;95.22
25084;BME280;13075;55.682;37.564;2023-07-13T03:56:37;98534.81;;;21.96;97.70
25084;BME280;13075;55.682;37.564;2023-07-13T03:59:04;98517.06;;;22.12;94.94
25084;BME280;13075;55.682;37.564;2023-07-13T04:01:29;98528.34;;;22.05;96.25
25084;BME280;13075;55.682;37.564;2023-07-13T04:03:55;98522.84;;;22.24;93.42
25084;BME280;13075;55.682;37.564;2023-07-13T04:06:23;98531.72;;;22.16;94.52
25084;BME280;13075;55.682;37.564;2023-07-13T04:08:51;98527.91;;;22.30;94.36
25084;BME280;13075;55.682;37.564;2023-07-13T04:11:17;98527.34;;;22.01;95.21
25084;BME280;13075;55.682;37.564;2023-07-13T04:13:43;98535.63;;;21.78;97.38
25084;BME280;13075;55.682;37.564;2023-07-13T04:16:08;98536.22;;;22.07;96.92
25084;BME280;13075;55.682;37.564;2023-07-13T04:18:34;98533.56;;;21.69;98.52
25084;BME280;13075;55.682;37.564;2023-07-13T04:20:59;98536.75;;;22.09;98.20
25084;BME280;13075;55.682;37.564;2023-07-13T04:23:25;98534.06;;;21.90;98.01
25084;BME280;13075;55.682;37.564;2023-07-13T04:25:51;98537.69;;;21.86;99.14
25084;BME280;13075;55.682;37.564;2023-07-13T04:28:23;98542.78;;;22.06;96.45
25084;BME280;13075;55.682;37.564;2023-07-13T04:30:49;98530.13;;;22.28;94.46
25084;BME280;13075;55.682;37.564;2023-07-13T04:33:15;98525.84;;;22.68;91.73
25084;BME280;13075;55.682;37.564;2023-07-13T04:35:42;98526.41;;;22.92;89.67
25084;BME280;13075;55.682;37.564;2023-07-13T04:38:07;98520.06;;;22.70;91.68
25084;BME280;13075;55.682;37.564;2023-07-13T04:40:34;98515.31;;;22.89;90.03
25084;BME280;13075;55.682;37.564;2023-07-13T04:42:59;98521.75;;;22.52;91.39
25084;BME280;13075;55.682;37.564;2023-07-13T04:45:24;98514.03;;;22.73;91.85
25084;BME280;13075;55.682;37.564;2023-07-13T04:47:50;98520.28;;;22.73;89.32
25084;BME280;13075;55.682;37.564;2023-07-13T04:50:15;98525.31;;;22.93;90.48
25084;BME280;13075;55.682;37.564;2023-07-13T04:52:45;98526.63;;;22.82;89.71
25084;BME280;13075;55.682;37.564;2023-07-13T04:55:10;98524.31;;;22.62;91.95
25084;BME280;13075;55.682;37.564;2023-07-13T04:57:36;98517.41;;;23.06;88.72
25084;BME280;13075;55.682;37.564;2023-07-13T05:00:01;98524.97;;;23.09;88.06
25084;BME280;13075;55.682;37.564;2023-07-13T05:02:30;98520.97;;;22.79;89.26
25084;BME280;13075;55.682;37.564;2023-07-13T05:04:57;98526.75;;;23.40;84.87
25084;BME280;13075;55.682;37.564;2023-07-13T05:07:22;98526.31;;;23.47;83.91
25084;BME280;13075;55.682;37.564;2023-07-13T05:09:47;98520.91;;;23.69;82.47
25084;BME280;13075;55.682;37.564;2023-07-13T05:12:13;98529.66;;;23.44;83.20
25084;BME280;13075;55.682;37.564;2023-07-13T05:14:38;98532.63;;;23.92;80.10
25084;BME280;13075;55.682;37.564;2023-07-13T05:17:04;98535.09;;;23.58;81.43
25084;BME280;13075;55.682;37.564;2023-07-13T05:19:29;98527.84;;;23.53;81.05
25084;BME280;13075;55.682;37.564;2023-07-13T05:21:55;98533.59;;;23.51;83.20
25084;BME280;13075;55.682;37.564;2023-07-13T05:24:20;98524.16;;;24.24;79.44
25084;BME280;13075;55.682;37.564;2023-07-13T05:26:46;98531.31;;;24.42;77.50
25084;BME280;13075;55.682;37.564;2023-07-13T05:29:11;98528.59;;;24.42;77.52
25084;BME280;13075;55.682;37.564;2023-07-13T05:31:36;98524.53;;;24.31;76.95
25084;BME280;13075;55.682;37.564;2023-07-13T05:34:02;98532.94;;;24.12;77.29
25084;BME280;13075;55.682;37.564;2023-07-13T05:36:28;98533.75;;;24.13;76.95
25084;BME280;13075;55.682;37.564;2023-07-13T05:38:54;98542.25;;;24.11;75.61
25084;BME280;13075;55.682;37.564;2023-07-13T05:41:19;98533.34;;;24.06;75.75
25084;BME280;13075;55.682;37.564;2023-07-13T05:43:44;98524.97;;;24.02;76.79
25084;BME280;13075;55.682;37.564;2023-07-13T05:46:10;98531.41;;;24.59;74.48
25084;BME280;13075;55.682;37.564;2023-07-13T05:48:35;98522.88;;;25.09;69.50
25084;BME280;13075;55.682;37.564;2023-07-13T05:51:01;98519.03;;;24.70;69.94
25084;BME280;13075;55.682;37.564;2023-07-13T05:53:26;98520.97;;;25.35;67.53
25084;BME280;13075;55.682;37.564;2023-07-13T05:55:53;98517.25;;;25.22;68.15
25084;BME280;13075;55.682;37.564;2023-07-13T05:58:19;98510.50;;;25.37;66.40
25084;BME280;13075;55.682;37.564;2023-07-13T06:00:45;98512.78;;;25.26;66.41
25084;BME280;13075;55.682;37.564;2023-07-13T06:03:10;98517.16;;;25.62;66.30
25084;BME280;13075;55.682;37.564;2023-07-13T06:05:36;98522.09;;;25.42;66.77
25084;BME280;13075;55.682;37.564;2023-07-13T06:08:03;98507.91;;;25.15;65.29
25084;BME280;13075;55.682;37.564;2023-07-13T06:10:29;98514.72;;;25.52;65.41
25084;BME280;13075;55.682;37.564;2023-07-13T06:12:54;98511.00;;;25.39;64.71
25084;BME280;13075;55.682;37.564;2023-07-13T06:15:20;98506.31;;;25.82;64.60
25084;BME280;13075;55.682;37.564;2023-07-13T06:17:45;98506.16;;;25.79;64.49
25084;BME280;13075;55.682;37.564;2023-07-13T06:20:11;98498.31;;;25.52;63.94
25084;BME280;13075;55.682;37.564;2023-07-13T06:22:37;98502.91;;;25.94;62.04
25084;BME280;13075;55.682;37.564;2023-07-13T06:25:02;98494.59;;;25.56;62.00
25084;BME280;13075;55.682;37.564;2023-07-13T06:27:28;98491.97;;;25.85;60.89
25084;BME280;13075;55.682;37.564;2023-07-13T06:29:53;98496.13;;;26.00;59.65
25084;BME280;13075;55.682;37.564;2023-07-13T06:32:19;98495.97;;;26.14;59.60
25084;BME280;13075;55.682;37.564;2023-07-13T06:34:44;98493.28;;;25.54;60.36
25084;BME280;13075;55.682;37.564;2023-07-13T06:37:10;98490.63;;;26.09;58.92
25084;BME280;13075;55.682;37.564;2023-07-13T06:39:35;98499.69;;;26.00;59.30
25084;BME280;13075;55.682;37.564;2023-07-13T06:42:00;98490.56;;;26.34;57.22
25084;BME280;13075;55.682;37.564;2023-07-13T06:44:26;98480.72;;;26.33;56.92
25084;BME280;13075;55.682;37.564;2023-07-13T06:46:51;98485.13;;;26.26;54.98
25084;BME280;13075;55.682;37.564;2023-07-13T06:49:17;98488.38;;;26.57;54.65
25084;BME280;13075;55.682;37.564;2023-07-13T06:51:42;98485.53;;;26.45;54.54
25084;BME280;13075;55.682;37.564;2023-07-13T06:54:07;98490.78;;;26.58;54.13
25084;BME280;13075;55.682;37.564;2023-07-13T06:56:33;98490.13;;;26.32;55.92
25084;BME280;13075;55.682;37.564;2023-07-13T06:58:58;98502.41;;;26.18;55.91
25084;BME280;13075;55.682;37.564;2023-07-13T07:01:24;98495.97;;;25.96;55.65
25084;BME280;13075;55.682;37.564;2023-07-13T07:03:49;98498.91;;;25.83;57.15
25084;BME280;13075;55.682;37.564;2023-07-13T07:06:19;98481.38;;;25.67;56.62
25084;BME280;13075;55.682;37.564;2023-07-13T07:08:45;98498.59;;;25.33;56.62
25084;BME280;13075;55.682;37.564;2023-07-13T07:11:16;98490.84;;;25.35;58.76
25084;BME280;13075;55.682;37.564;2023-07-13T07:13:42;98490.66;;;25.14;59.09
25084;BME280;13075;55.682;37.564;2023-07-13T07:16:07;98485.53;;;25.21;58.50
25084;BME280;13075;55.682;37.564;2023-07-13T07:18:34;98492.59;;;25.14;58.56
25084;BME280;13075;55.682;37.564;2023-07-13T07:20:59;98497.44;;;25.25;58.13
25084;BME280;13075;55.682;37.564;2023-07-13T07:23:25;98499.06;;;25.18;58.25
25084;BME280;13075;55.682;37.564;2023-07-13T07:25:50;98498.72;;;25.45;58.34
25084;BME280;13075;55.682;37.564;2023-07-13T07:28:17;98492.47;;;25.19;56.74
25084;BME280;13075;55.682;37.564;2023-07-13T07:30:46;98501.34;;;25.42;57.16
25084;BME280;13075;55.682;37.564;2023-07-13T07:33:12;98491.19;;;25.51;56.34
25084;BME280;13075;55.682;37.564;2023-07-13T07:35:37;98499.97;;;24.88;58.02
25084;BME280;13075;55.682;37.564;2023-07-13T07:38:03;98503.88;;;24.95;57.84
25084;BME280;13075;55.682;37.564;2023-07-13T07:40:28;98504.50;;;24.53;58.50
25084;BME280;13075;55.682;37.564;2023-07-13T07:42:54;98510.91;;;24.79;58.36
25084;BME280;13075;55.682;37.564;2023-07-13T07:45:20;98507.59;;;25.16;57.89
25084;BME280;13075;55.682;37.564;2023-07-13T07:47:45;98512.03;;;24.87;59.18
25084;BME280;13075;55.682;37.564;2023-07-13T07:50:11;98515.94;;;25.11;58.95
25084;BME280;13075;55.682;37.564;2023-07-13T07:52:36;98514.13;;;24.81;60.85
25084;BME280;13075;55.682;37.564;2023-07-13T07:55:03;98508.06;;;25.10;60.63
25084;BME280;13075;55.682;37.564;2023-07-13T07:57:29;98518.34;;;25.04;61.65
25084;BME280;13075;55.682;37.564;2023-07-13T07:59:54;98510.34;;;25.16;61.69
25084;BME280;13075;55.682;37.564;2023-07-13T08:02:19;98508.91;;;24.71;64.56
25084;BME280;13075;55.682;37.564;2023-07-13T08:04:45;98506.25;;;24.97;64.20
25084;BME280;13075;55.682;37.564;2023-07-13T08:07:10;98512.13;;;24.73;63.66
25084;BME280;13075;55.682;37.564;2023-07-13T08:09:36;98505.13;;;24.89;63.98
25084;BME280;13075;55.682;37.564;2023-07-13T08:12:03;98522.81;;;24.83;64.26
25084;BME280;13075;55.682;37.564;2023-07-13T08:14:29;98519.13;;;24.96;64.90
25084;BME280;13075;55.682;37.564;2023-07-13T08:16:54;98517.69;;;23.98;66.02
25084;BME280;13075;55.682;37.564;2023-07-13T08:19:20;98527.50;;;24.83;63.44
25084;BME280;13075;55.682;37.564;2023-07-13T08:21:45;98529.53;;;24.38;65.66
25084;BME280;13075;55.682;37.564;2023-07-13T08:24:13;98527.53;;;24.60;62.24
25084;BME280;13075;55.682;37.564;2023-07-13T08:26:38;98510.41;;;24.86;62.18
25084;BME280;13075;55.682;37.564;2023-07-13T08:29:04;98518.66;;;24.55;61.69
25084;BME280;13075;55.682;37.564;2023-07-13T08:31:29;98513.50;;;24.53;62.60
25084;BME280;13075;55.682;37.564;2023-07-13T08:33:55;98515.22;;;24.41;60.68
25084;BME280;13075;55.682;37.564;2023-07-13T08:36:20;98525.44;;;24.27;61.13
25084;BME280;13075;55.682;37.564;2023-07-13T08:38:46;98523.34;;;24.24;62.50
25084;BME280;13075;55.682;37.564;2023-07-13T08:41:12;98528.94;;;24.18;61.29
25084;BME280;13075;55.682;37.564;2023-07-13T08:43:38;98538.03;;;24.67;60.87
25084;BME280;13075;55.682;37.564;2023-07-13T08:48:37;98517.09;;;24.32;64.45
25084;BME280;13075;55.682;37.564;2023-07-13T08:51:09;98520.66;;;24.32;65.91
25084;BME280;13075;55.682;37.564;2023-07-13T08:53:42;98535.69;;;24.21;66.23
25084;BME280;13075;55.682;37.564;2023-07-13T08:56:24;98542.97;;;24.03;69.27
25084;BME280;13075;55.682;37.564;2023-07-13T08:59:01;98542.66;;;23.83;71.41
25084;BME280;13075;55.682;37.564;2023-07-13T09:09:36;98545.31;;;24.10;86.05
25084;BME280;13075;55.682;37.564;2023-07-13T09:12:12;98540.19;;;24.17;83.79
25084;BME280;13075;55.682;37.564;2023-07-13T09:17:08;98537.66;;;24.51;86.42
25084;BME280;13075;55.682;37.564;2023-07-13T09:19:36;98544.84;;;24.47;83.72
25084;BME280;13075;55.682;37.564;2023-07-13T09:22:02;98549.09;;;25.01;85.99
25084;BME280;13075;55.682;37.564;2023-07-13T09:26:57;98561.19;;;24.30;89.91
25084;BME280;13075;55.682;37.564;2023-07-13T09:29:26;98564.53;;;24.05;92.16
25084;BME280;13075;55.682;37.564;2023-07-13T09:31:54;98564.09;;;24.34;92.84
25084;BME280;13075;55.682;37.564;2023-07-13T09:34:20;98563.69;;;24.49;92.43
25084;BME280;13075;55.682;37.564;2023-07-13T09:36:46;98563.16;;;24.16;95.48
25084;BME280;13075;55.682;37.564;2023-07-13T09:39:15;98565.09;;;23.93;99.97
25084;BME280;13075;55.682;37.564;2023-07-13T09:41:47;98568.06;;;24.05;99.70
25084;BME280;13075;55.682;37.564;2023-07-13T09:44:16;98566.56;;;24.44;96.22
25084;BME280;13075;55.682;37.564;2023-07-13T09:46:47;98568.31;;;23.95;100.00
25084;BME280;13075;55.682;37.564;2023-07-13T09:49:17;98564.69;;;23.64;100.00
25084;BME280;13075;55.682;37.564;2023-07-13T09:51:42;98570.06;;;24.13;100.00
25084;BME280;13075;55.682;37.564;2023-07-13T09:54:23;98575.66;;;24.08;100.00
25084;BME280;13075;55.682;37.564;2023-07-13T09:56:53;98567.38;;;23.55;100.00
25084;BME280;13075;55.682;37.564;2023-07-13T09:59:20;98567.00;;;23.93;100.00
25084;BME280;13075;55.682;37.564;2023-07-13T10:01:46;98574.03;;;23.85;100.00
25084;BME280;13075;55.682;37.564;2023-07-13T10:04:13;98569.63;;;23.76;100.00
25084;BME280;13075;55.682;37.564;2023-07-13T10:06:41;98571.09;;;23.60;100.00
25084;BME280;13075;55.682;37.564;2023-07-13T10:09:08;98556.84;;;23.49;100.00
25084;BME280;13075;55.682;37.564;2023-07-13T10:11:35;98560.59;;;23.53;100.00
25084;BME280;13075;55.682;37.564;2023-07-13T10:14:02;98565.41;;;23.07;100.00
25084;BME280;13075;55.682;37.564;2023-07-13T10:16:28;98564.31;;;22.94;100.00
25084;BME280;13075;55.682;37.564;2023-07-13T10:18:58;98571.16;;;23.46;100.00
25084;BME280;13075;55.682;37.564;2023-07-13T10:21:30;98570.34;;;23.45;100.00
25084;BME280;13075;55.682;37.564;2023-07-13T10:24:19;98563.22;;;23.31;100.00
25084;BME280;13075;55.682;37.564;2023-07-13T10:26:54;98568.84;;;22.99;100.00
25084;BME280;13075;55.682;37.564;2023-07-13T10:29:21;98564.00;;;23.09;100.00
25084;BME280;13075;55.682;37.564;2023-07-13T10:31:49;98569.97;;;22.70;100.00
25084;BME280;13075;55.682;37.564;2023-07-13T10:34:15;98569.97;;;22.70;100.00
25084;BME280;13075;55.682;37.564;2023-07-13T10:36:42;98571.91;;;22.83;100.00
25084;BME280;13075;55.682;37.564;2023-07-13T10:39:18;98567.75;;;22.86;100.00
25084;BME280;13075;55.682;37.564;2023-07-13T10:41:44;98569.56;;;23.04;100.00
25084;BME280;13075;55.682;37.564;2023-07-13T10:44:18;98575.19;;;23.08;100.00
25084;BME280;13075;55.682;37.564;2023-07-13T10:46:45;98580.47;;;22.90;100.00
25084;BME280;13075;55.682;37.564;2023-07-13T10:49:10;98584.19;;;22.94;100.00
25084;BME280;13075;55.682;37.564;2023-07-13T10:51:37;98581.78;;;22.93;100.00
25084;BME280;13075;55.682;37.564;2023-07-13T10:54:14;98577.22;;;23.16;100.00
25084;BME280;13075;55.682;37.564;2023-07-13T10:56:42;98581.97;;;23.10;100.00
25084;BME280;13075;55.682;37.564;2023-07-13T10:59:11;98584.09;;;23.13;100.00
25084;BME280;13075;55.682;37.564;2023-07-13T11:01:40;98575.41;;;23.11;100.00
25084;BME280;13075;55.682;37.564;2023-07-13T11:04:08;98579.13;;;23.15;100.00
25084;BME280;13075;55.682;37.564;2023-07-13T11:06:37;98590.91;;;22.56;100.00
25084;BME280;13075;55.682;37.564;2023-07-13T11:09:34;98587.34;;;22.74;100.00
25084;BME280;13075;55.682;37.564;2023-07-13T11:12:02;98589.66;;;23.08;100.00
25084;BME280;13075;55.682;37.564;2023-07-13T11:17:23;98578.06;;;22.43;100.00
25084;BME280;13075;55.682;37.564;2023-07-13T11:19:46;98575.22;;;22.67;100.00
25084;BME280;13075;55.682;37.564;2023-07-13T11:22:16;98580.53;;;22.45;100.00
25084;BME280;13075;55.682;37.564;2023-07-13T11:24:56;98568.56;;;22.73;100.00
25084;BME280;13075;55.682;37.564;2023-07-13T11:27:30;98569.66;;;22.72;100.00
25084;BME280;13075;55.682;37.564;2023-07-13T11:32:45;98563.28;;;22.76;100.00
25084;BME280;13075;55.682;37.564;2023-07-13T11:35:22;98563.16;;;22.54;100.00
25084;BME280;13075;55.682;37.564;2023-07-13T11:37:49;98557.50;;;22.51;100.00
25084;BME280;13075;55.682;37.564;2023-07-13T11:40:14;98564.34;;;22.34;100.00
25084;BME280;13075;55.682;37.564;2023-07-13T11:42:40;98553.00;;;22.87;100.00
25084;BME280;13075;55.682;37.564;2023-07-13T11:45:18;98550.75;;;23.03;100.00
25084;BME280;13075;55.682;37.564;2023-07-13T11:47:44;98553.63;;;22.84;100.00
25084;BME280;13075;55.682;37.564;2023-07-13T11:50:20;98547.84;;;22.99;100.00
25084;BME280;13075;55.682;37.564;2023-07-13T11:52:46;98551.06;;;23.01;100.00
25084;BME280;13075;55.682;37.564;2023-07-13T11:55:14;98559.66;;;22.67;100.00
25084;BME280;13075;55.682;37.564;2023-07-13T11:57:45;98562.69;;;22.93;100.00
25084;BME280;13075;55.682;37.564;2023-07-13T12:00:13;98551.56;;;23.03;100.00
25084;BME280;13075;55.682;37.564;2023-07-13T12:05:06;98557.13;;;22.84;100.00
25084;BME280;13075;55.682;37.564;2023-07-13T12:07:35;98568.75;;;22.76;100.00
25084;BME280;13075;55.682;37.564;2023-07-13T12:10:46;98563.72;;;22.83;100.00
25084;BME280;13075;55.682;37.564;2023-07-13T12:12:48;98574.53;;;23.02;100.00
25084;BME280;13075;55.682;37.564;2023-07-13T12:15:13;98570.56;;;22.94;100.00
25084;BME280;13075;55.682;37.564;2023-07-13T12:17:39;98568.03;;;22.98;100.00
25084;BME280;13075;55.682;37.564;2023-07-13T12:20:39;98570.16;;;22.74;100.00
25084;BME280;13075;55.682;37.564;2023-07-13T12:22:58;98565.94;;;22.35;100.00
25084;BME280;13075;55.682;37.564;2023-07-13T12:25:23;98562.06;;;22.69;100.00
25084;BME280;13075;55.682;37.564;2023-07-13T12:27:50;98555.56;;;22.51;100.00
25084;BME280;13075;55.682;37.564;2023-07-13T12:30:23;98554.94;;;22.73;100.00
25084;BME280;13075;55.682;37.564;2023-07-13T12:35:32;98553.75;;;22.47;100.00
25084;BME280;13075;55.682;37.564;2023-07-13T12:38:00;98551.59;;;22.30;100.00
25084;BME280;13075;55.682;37.564;2023-07-13T12:40:33;98546.31;;;22.52;100.00
25084;BME280;13075;55.682;37.564;2023-07-13T12:43:00;98547.69;;;22.36;100.00
25084;BME280;13075;55.682;37.564;2023-07-13T12:45:27;98543.41;;;22.62;100.00
25084;BME280;13075;55.682;37.564;2023-07-13T12:48:02;98545.00;;;22.50;100.00
25084;BME280;13075;55.682;37.564;2023-07-13T12:50:40;98550.97;;;22.79;100.00
25084;BME280;13075;55.682;37.564;2023-07-13T12:53:09;98543.69;;;22.74;100.00
25084;BME280;13075;55.682;37.564;2023-07-13T12:55:40;98543.97;;;22.59;100.00
25084;BME280;13075;55.682;37.564;2023-07-13T12:58:09;98552.19;;;22.86;100.00
25084;BME280;13075;55.682;37.564;2023-07-13T13:00:38;98556.44;;;22.65;100.00
25084;BME280;13075;55.682;37.564;2023-07-13T13:03:05;98556.00;;;22.58;100.00
25084;BME280;13075;55.682;37.564;2023-07-13T13:05:31;98553.41;;;22.67;100.00
25084;BME280;13075;55.682;37.564;2023-07-13T13:07:57;98553.88;;;22.55;100.00
25084;BME280;13075;55.682;37.564;2023-07-13T13:10:23;98554.97;;;22.54;100.00
25084;BME280;13075;55.682;37.564;2023-07-13T13:12:49;98545.72;;;22.69;100.00
25084;BME280;13075;55.682;37.564;2023-07-13T13:15:15;98547.91;;;22.53;100.00
25084;BME280;13075;55.682;37.564;2023-07-13T13:17:41;98544.88;;;22.55;100.00
25084;BME280;13075;55.682;37.564;2023-07-13T13:20:17;98547.00;;;22.58;100.00
25084;BME280;13075;55.682;37.564;2023-07-13T13:22:42;98538.84;;;22.58;100.00
25084;BME280;13075;55.682;37.564;2023-07-13T13:25:10;98549.50;;;22.27;100.00